Time;durP1;ratioP1;P1;durP2;ratioP2;P2;SDS_P1;SDS_P2;PMS_P1;PMS_P2;Temp;Humidity;BMP_temperature;BMP_pressure;BME280_temperature;BME280_humidity;BME280_pressure;Samples;Min_cycle;Max_cycle;Signal;HPM_P1;HPM_P2
2022/03/17 00:00:46;;;;;;;;;6.50;6.25;;;;;13.82;59.28;102103.31;2447500;28;46752;-92
2022/03/17 00:01:56;;;;;;;;;8.25;6.25;;;;;13.80;59.39;102102.47;2450194;28;44702;-91
2022/03/17 00:03:07;;;;;;;;;5.75;4.00;;;;;13.80;59.24;102106.91;2445483;28;45511;-91
2022/03/17 00:04:21;;;;;;;;;6.00;4.00;;;;;13.78;59.49;102098.97;2442647;28;45306;-92
2022/03/17 00:05:32;;;;;;;;;5.50;5.25;;;;;13.80;59.49;102110.38;2450488;28;45326;-91
2022/03/17 00:06:42;;;;;;;;;4.50;4.50;;;;;13.80;59.12;102106.91;2449031;28;45288;-93
2022/03/17 00:07:52;;;;;;;;;6.75;6.00;;;;;13.76;59.39;102110.50;2440467;28;48175;-91
2022/03/17 00:09:04;;;;;;;;;7.00;6.25;;;;;13.72;59.27;102102.66;2447996;28;44581;-90
2022/03/17 00:10:16;;;;;;;;;5.50;5.00;;;;;13.69;59.63;102099.22;2450683;27;46445;-88
2022/03/17 00:11:28;;;;;;;;;6.25;6.25;;;;;13.68;59.61;102105.44;2454479;27;45437;-89
2022/03/17 00:12:38;;;;;;;;;7.00;5.25;;;;;13.68;59.24;102108.91;2448872;28;45443;-89
2022/03/17 00:13:49;;;;;;;;;6.25;5.00;;;;;13.68;59.37;102108.91;2450162;28;44867;-87
2022/03/17 00:15:00;;;;;;;;;7.00;6.50;;;;;13.69;59.25;102110.66;2452003;28;46268;-88
2022/03/17 00:16:11;;;;;;;;;4.25;4.25;;;;;13.69;59.66;102105.38;2451183;27;45287;-90
2022/03/17 00:17:21;;;;;;;;;6.50;5.50;;;;;13.69;59.62;102110.66;2451784;28;47367;-90
2022/03/17 00:18:32;;;;;;;;;5.50;5.50;;;;;13.68;59.24;102113.34;2444509;28;45296;-91
2022/03/17 00:19:42;;;;;;;;;4.75;4.75;;;;;13.69;59.13;102110.66;2447484;28;45316;-91
2022/03/17 00:20:52;;;;;;;;;5.50;5.50;;;;;13.71;59.13;102118.53;2449592;27;45168;-89
2022/03/17 00:22:08;;;;;;;;;6.00;5.00;;;;;13.70;59.56;102117.66;2452408;28;45491;-89
2022/03/17 00:23:19;;;;;;;;;6.75;6.75;;;;;13.70;59.76;102116.81;2448565;28;45579;-90
2022/03/17 00:24:29;;;;;;;;;7.00;6.50;;;;;13.69;59.36;102117.72;2448215;28;48179;-90
2022/03/17 00:25:40;;;;;;;;;8.25;8.00;;;;;13.70;59.68;102125.59;2444835;28;45283;-91
2022/03/17 00:26:50;;;;;;;;;7.25;7.00;;;;;13.68;59.62;102124.75;2451331;28;46112;-90
2022/03/17 00:28:01;;;;;;;;;9.75;8.00;;;;;13.69;59.21;102125.63;2451150;28;45749;-89
2022/03/17 00:29:11;;;;;;;;;8.00;6.75;;;;;13.68;59.36;102137.97;2452599;27;45238;-89
2022/03/17 00:30:22;;;;;;;;;6.75;6.25;;;;;13.66;59.26;102134.50;2451875;28;45255;-90
2022/03/17 00:31:32;;;;;;;;;8.25;8.25;;;;;13.65;59.48;102134.56;2454273;27;45247;-90
2022/03/17 00:32:42;;;;;;;;;8.25;8.25;;;;;13.66;59.52;102138.91;2443150;28;45213;-87
2022/03/17 00:33:53;;;;;;;;;11.50;7.75;;;;;13.61;59.22;102141.66;2452428;28;45481;-87
2022/03/17 00:36:34;;;;;;;;;7.75;7.75;;;;;13.57;59.44;102140.88;2450476;28;45177;-91
2022/03/17 00:37:46;;;;;;;;;9.00;8.00;;;;;13.57;59.28;102147.94;2452630;27;45215;-85
2022/03/17 00:38:56;;;;;;;;;11.75;10.50;;;;;13.55;59.43;102149.72;2452397;27;45432;-85
2022/03/17 00:40:07;;;;;;;;;9.25;9.00;;;;;13.56;59.77;102139.13;2451573;27;44890;-85
2022/03/17 00:41:18;;;;;;;;;10.25;8.50;;;;;13.54;59.59;102151.47;2450983;28;45365;-91
2022/03/17 00:42:28;;;;;;;;;9.75;9.75;;;;;13.56;59.47;102146.16;2448843;27;45306;-93
2022/03/17 00:43:39;;;;;;;;;9.50;9.50;;;;;13.55;59.49;102150.59;2451750;27;47820;-94
2022/03/17 00:44:50;;;;;;;;;10.00;8.00;;;;;13.55;59.64;102155.88;2469498;27;44758;-94
2022/03/17 00:46:00;;;;;;;;;13.00;10.25;;;;;13.55;59.77;102155.00;2455628;27;47363;-93
2022/03/17 00:47:11;;;;;;;;;8.25;8.25;;;;;13.55;59.39;102174.38;2452749;28;45281;-94
2022/03/17 00:48:21;;;;;;;;;9.25;9.25;;;;;13.54;59.22;102164.69;2451594;27;47190;-93
2022/03/17 00:49:31;;;;;;;;;10.75;10.75;;;;;13.55;59.25;102174.38;2444884;28;44682;-94
2022/03/17 00:50:42;;;;;;;;;11.25;10.50;;;;;13.55;59.33;102170.84;2444723;28;47162;-95
2022/03/17 00:51:52;;;;;;;;;14.00;13.25;;;;;13.54;59.68;102179.66;2452310;28;45185;-95
2022/03/17 00:53:04;;;;;;;;;14.50;12.00;;;;;13.54;59.61;102185.81;2448423;28;47463;-93
2022/03/17 00:54:14;;;;;;;;;15.00;13.00;;;;;13.53;59.68;102188.50;2442843;28;45158;-94
2022/03/17 00:55:25;;;;;;;;;13.75;13.25;;;;;13.53;59.65;102180.59;2441493;28;48013;-94
2022/03/17 00:56:35;;;;;;;;;15.50;13.50;;;;;13.49;59.62;102179.78;2455874;27;44754;-94
2022/03/17 00:57:47;;;;;;;;;13.25;12.25;;;;;13.52;59.61;102184.13;2458934;27;46543;-92
2022/03/17 00:58:57;;;;;;;;;12.50;12.50;;;;;13.50;59.48;102187.69;2444940;28;45452;-94
2022/03/17 01:00:10;;;;;;;;;16.50;13.75;;;;;13.50;59.81;102190.31;2464428;27;46992;-94
2022/03/17 01:01:20;;;;;;;;;15.75;14.25;;;;;13.50;59.46;102197.38;2459029;27;45305;-95
2022/03/17 01:02:31;;;;;;;;;15.00;10.75;;;;;13.50;59.72;102190.31;2452077;28;48326;-94
2022/03/17 01:03:42;;;;;;;;;19.25;15.00;;;;;13.52;59.80;102192.03;2451681;28;45178;-94
2022/03/17 01:04:52;;;;;;;;;15.75;15.75;;;;;13.51;59.20;102196.44;2443153;28;47570;-95
2022/03/17 01:06:03;;;;;;;;;17.75;15.00;;;;;13.52;59.67;102199.97;2440663;28;45484;-95
2022/03/17 01:07:13;;;;;;;;;12.75;12.75;;;;;13.52;59.46;102197.31;2465333;27;47254;-94
2022/03/17 01:08:24;;;;;;;;;22.00;15.75;;;;;13.50;59.84;102197.38;2458252;27;45260;-94
2022/03/17 01:09:35;;;;;;;;;15.25;15.25;;;;;13.48;59.80;102191.25;2451322;28;47479;-94
2022/03/17 01:10:46;;;;;;;;;14.00;13.00;;;;;13.48;59.50;102197.38;2451424;28;45252;-95
2022/03/17 01:11:56;;;;;;;;;15.00;15.00;;;;;13.49;59.76;102192.97;2445227;28;48226;-92
2022/03/17 01:13:07;;;;;;;;;18.25;14.75;;;;;13.45;59.84;102194.84;2443237;28;45477;-93
2022/03/17 01:14:17;;;;;;;;;16.75;14.50;;;;;13.44;59.74;102195.72;2449660;28;48058;-92
2022/03/17 01:15:29;;;;;;;;;15.25;14.25;;;;;13.41;59.73;102206.34;2441644;28;45339;-93
2022/03/17 01:16:40;;;;;;;;;15.75;15.50;;;;;13.38;59.98;102206.44;2459415;27;47164;-92
2022/03/17 01:17:51;;;;;;;;;17.50;14.50;;;;;13.37;60.06;102204.69;2450674;28;44638;-92
2022/03/17 01:19:01;;;;;;;;;16.75;15.00;;;;;13.39;60.13;102213.44;2444043;28;48142;-93
2022/03/17 01:20:12;;;;;;;;;20.00;15.50;;;;;13.38;59.87;102204.63;2450457;28;45366;-91
2022/03/17 01:21:22;;;;;;;;;19.25;15.50;;;;;13.38;59.97;102211.72;2450549;28;48193;-92
2022/03/17 01:22:33;;;;;;;;;15.75;13.75;;;;;13.38;59.82;102215.19;2444037;28;44749;-93
2022/03/17 01:23:43;;;;;;;;;19.00;16.25;;;;;13.38;60.01;102227.56;2441385;28;47130;-90
2022/03/17 01:24:54;;;;;;;;;20.75;16.50;;;;;13.38;59.95;102222.28;2447509;28;45481;-91
2022/03/17 01:26:04;;;;;;;;;20.00;17.50;;;;;13.36;59.83;102217.00;2445984;28;47116;-91
2022/03/17 01:27:19;;;;;;;;;17.50;16.00;;;;;13.36;59.94;102219.66;2445143;27;45137;-90
2022/03/17 01:28:30;;;;;;;;;18.25;16.75;;;;;13.35;59.80;102223.22;2450236;27;47222;-91
2022/03/17 01:29:43;;;;;;;;;17.25;16.25;;;;;13.37;60.00;102229.31;2443263;28;44693;-91
2022/03/17 01:30:53;;;;;;;;;18.75;18.00;;;;;13.40;60.11;102228.38;2450830;28;47247;-92
2022/03/17 01:32:04;;;;;;;;;15.25;14.25;;;;;13.40;59.97;102231.03;2444051;28;44634;-92
2022/03/17 01:33:14;;;;;;;;;18.50;15.50;;;;;13.41;60.25;102226.63;2443423;28;46866;-92
2022/03/17 01:34:25;;;;;;;;;17.25;15.25;;;;;13.42;60.00;102238.91;2450915;28;45141;-91
2022/03/17 01:35:36;;;;;;;;;18.50;16.25;;;;;13.40;59.82;102233.66;2443639;28;47268;-90
2022/03/17 01:36:46;;;;;;;;;23.50;20.00;;;;;13.39;59.78;102234.56;2443646;28;45232;-90
2022/03/17 01:37:56;;;;;;;;;20.25;17.00;;;;;13.37;59.97;102250.44;2450000;28;45441;-90
2022/03/17 01:39:07;;;;;;;;;17.50;13.25;;;;;13.36;59.66;102247.81;2451350;28;45195;-88
2022/03/17 01:40:17;;;;;;;;;18.50;16.00;;;;;13.31;59.86;102247.91;2441725;28;46178;-90
2022/03/17 01:41:27;;;;;;;;;16.00;15.00;;;;;13.31;60.09;102247.91;2456151;27;45346;-89
2022/03/17 01:42:39;;;;;;;;;16.50;15.00;;;;;13.32;59.88;102249.66;2448655;28;46333;-91
2022/03/17 01:43:50;;;;;;;;;19.50;16.50;;;;;13.30;60.09;102254.13;2442883;28;45358;-91
2022/03/17 01:45:01;;;;;;;;;16.50;15.25;;;;;13.26;60.09;102239.25;2466475;27;47045;-91
2022/03/17 01:46:14;;;;;;;;;21.50;18.00;;;;;13.26;59.77;102242.72;2464808;27;45405;-88
2022/03/17 01:47:27;;;;;;;;;17.00;14.50;;;;;13.25;60.10;102242.78;2450493;28;47073;-89
2022/03/17 01:48:38;;;;;;;;;22.75;18.75;;;;;13.24;60.06;102239.25;2449732;28;45451;-88
2022/03/17 01:49:49;;;;;;;;;16.75;16.75;;;;;13.25;60.33;102243.66;2450748;27;45421;-88
2022/03/17 01:50:59;;;;;;;;;19.25;17.50;;;;;13.24;60.09;102252.47;2451353;27;45309;-88
2022/03/17 01:52:10;;;;;;;;;20.25;16.25;;;;;13.23;60.18;102248.09;2451240;27;45459;-90
2022/03/17 01:53:22;;;;;;;;;17.50;16.75;;;;;13.19;60.15;102251.69;2449470;27;45264;-90
2022/03/17 01:54:34;;;;;;;;;18.75;17.00;;;;;13.16;60.29;102249.13;2449606;28;47288;-90
2022/03/17 01:55:44;;;;;;;;;17.25;16.75;;;;;13.15;60.71;102260.56;2450971;28;44583;-91
2022/03/17 01:56:55;;;;;;;;;21.75;20.00;;;;;13.16;60.45;102254.41;2450429;28;47210;-90
2022/03/17 01:58:05;;;;;;;;;17.50;16.25;;;;;13.14;60.43;102253.53;2450802;28;45327;-89
2022/03/17 01:59:16;;;;;;;;;21.75;19.50;;;;;13.15;60.53;102252.66;2450270;27;46580;-91
2022/03/17 02:00:26;;;;;;;;;21.50;17.25;;;;;13.13;60.64;102254.44;2450339;28;45328;-87
2022/03/17 02:01:38;;;;;;;;;19.00;18.25;;;;;13.11;60.41;102248.34;2450404;28;45345;-86
2022/03/17 02:02:51;;;;;;;;;16.25;16.25;;;;;13.07;60.69;102254.56;2449640;27;45307;-87
2022/03/17 02:04:01;;;;;;;;;21.25;16.50;;;;;13.07;60.58;102254.56;2449900;28;46363;-88
2022/03/17 02:05:12;;;;;;;;;20.00;17.50;;;;;13.04;60.64;102255.47;2448428;28;44728;-87
2022/03/17 02:06:23;;;;;;;;;21.25;18.50;;;;;13.03;60.59;102259.91;2401958;28;1177920;-88
2022/03/17 02:07:33;;;;;;;;;19.25;18.25;;;;;13.01;60.81;102251.13;2444654;28;45426;-87
2022/03/17 02:08:44;;;;;;;;;16.75;15.75;;;;;13.00;60.67;102257.31;2450290;28;47226;-87
2022/03/17 02:09:55;;;;;;;;;18.25;18.25;;;;;12.99;60.78;102252.94;2442783;28;45284;-88
2022/03/17 02:14:03;;;;;;;;;22.25;21.25;;;;;12.99;61.19;102266.13;2451708;28;45272;-92
2022/03/17 02:15:14;;;;;;;;;24.75;23.00;;;;;12.99;60.93;102270.56;2450724;28;45288;-91
2022/03/17 02:16:27;;;;;;;;;20.75;17.00;;;;;12.98;61.01;102277.59;2463140;27;47048;-93
2022/03/17 02:17:43;;;;;;;;;27.50;25.00;;;;;12.97;61.10;102272.34;2448645;28;45340;-91
2022/03/17 02:18:53;;;;;;;;;26.50;22.50;;;;;12.99;61.10;102281.13;2464440;27;47521;-92
2022/03/17 02:20:04;;;;;;;;;22.75;21.50;;;;;13.00;61.17;102286.34;2464742;27;44839;-94
2022/03/17 02:21:15;;;;;;;;;22.75;22.00;;;;;13.00;61.12;102286.34;2450929;28;48081;-93
2022/03/17 02:22:27;;;;;;;;;20.25;17.75;;;;;12.98;61.03;102288.16;2443717;28;45230;-93
2022/03/17 02:26:37;;;;;;;;;19.25;18.75;;;;;12.95;61.36;102298.75;2451008;28;45660;-91
2022/03/17 02:27:47;;;;;;;;;23.00;21.75;;;;;12.94;61.34;102304.94;2451138;28;44665;-92
2022/03/17 02:29:01;;;;;;;;;26.25;21.75;;;;;12.92;61.40;102299.69;2451213;28;45498;-92
2022/03/17 02:30:14;;;;;;;;;23.50;21.00;;;;;12.93;61.25;102303.19;2450478;28;45347;-89
2022/03/17 02:31:25;;;;;;;;;27.00;23.75;;;;;12.92;61.48;102293.53;2439176;28;46327;-93
2022/03/17 02:32:37;;;;;;;;;28.50;22.75;;;;;12.91;61.49;102292.66;2438426;27;44890;-90
2022/03/17 02:33:47;;;;;;;;;24.00;22.75;;;;;12.92;61.46;102299.69;2440616;28;48139;-91
2022/03/17 02:35:12;;;;;;;;;23.75;17.75;;;;;12.92;61.23;102298.81;2446035;27;44704;-90
2022/03/17 02:36:24;;;;;;;;;22.50;21.75;;;;;12.93;61.24;102297.94;2449211;28;46254;-89
2022/03/17 02:37:34;;;;;;;;;23.50;22.75;;;;;12.92;61.21;102296.16;2444055;28;44632;-90
2022/03/17 02:38:45;;;;;;;;;21.50;20.00;;;;;12.91;61.11;102307.66;2449879;28;45232;-88
2022/03/17 02:39:56;;;;;;;;;20.50;19.00;;;;;12.90;61.24;102303.25;2450060;28;45325;-89
2022/03/17 02:41:06;;;;;;;;;25.25;23.25;;;;;12.90;61.24;102290.06;2450967;28;46286;-90
2022/03/17 02:42:18;;;;;;;;;24.00;21.75;;;;;12.88;61.04;102287.47;2449069;28;44756;-89
2022/03/17 02:43:28;;;;;;;;;23.25;18.75;;;;;12.89;61.28;102290.97;2450420;28;46602;-89
2022/03/17 02:44:39;;;;;;;;;29.25;23.25;;;;;12.91;61.87;102294.44;2450767;27;45658;-87
2022/03/17 02:45:50;;;;;;;;;21.25;19.50;;;;;12.88;60.94;102286.56;2451126;28;45456;-88
2022/03/17 02:47:00;;;;;;;;;21.25;21.25;;;;;12.90;61.66;102295.34;2451737;27;45322;-93
2022/03/17 02:48:11;;;;;;;;;21.50;20.50;;;;;12.92;61.28;102301.44;2451274;28;47093;-92
2022/03/17 02:49:22;;;;;;;;;21.50;20.50;;;;;12.92;61.45;102315.53;2443752;28;45229;-92
2022/03/17 02:50:34;;;;;;;;;24.75;23.75;;;;;12.92;61.37;102326.06;2445190;28;47273;-94
2022/03/17 02:51:46;;;;;;;;;23.25;21.00;;;;;12.93;61.31;102332.22;2446371;28;45213;-94
2022/03/17 02:52:57;;;;;;;;;20.75;19.00;;;;;12.94;61.05;102326.03;2441888;28;48156;-93
2022/03/17 02:54:08;;;;;;;;;21.00;20.00;;;;;12.96;60.79;102320.75;2449747;28;45434;-94
2022/03/17 02:55:18;;;;;;;;;21.00;16.25;;;;;12.98;60.92;102329.50;2450471;28;47185;-94
2022/03/17 02:56:28;;;;;;;;;17.50;16.00;;;;;12.97;61.22;102322.47;2444370;28;44669;-94
2022/03/17 02:57:39;;;;;;;;;22.50;21.00;;;;;12.97;60.68;102319.84;2450465;28;47095;-93
2022/03/17 02:58:50;;;;;;;;;21.25;17.25;;;;;12.98;60.68;102316.31;2444336;28;45224;-93
2022/03/17 03:00:00;;;;;;;;;22.25;18.50;;;;;12.97;60.86;102315.44;2464506;27;47028;-93
2022/03/17 03:01:10;;;;;;;;;22.75;18.75;;;;;12.97;60.71;102322.47;2458770;27;45246;-92
2022/03/17 03:02:22;;;;;;;;;21.00;16.50;;;;;12.93;61.03;102321.69;2455090;27;48048;-93
2022/03/17 03:03:32;;;;;;;;;28.75;22.00;;;;;12.92;60.73;102325.19;2439345;28;45188;-93
2022/03/17 03:04:43;;;;;;;;;21.75;18.50;;;;;12.91;60.96;102319.03;2445835;28;48117;-91
2022/03/17 03:05:53;;;;;;;;;21.75;19.75;;;;;12.89;60.74;102323.47;2442977;28;45208;-90
2022/03/17 03:07:06;;;;;;;;;20.75;19.25;;;;;12.91;60.46;102324.31;2440479;28;48409;-90
2022/03/17 03:08:16;;;;;;;;;20.50;18.00;;;;;12.91;60.44;102328.75;2447256;28;44777;-91
2022/03/17 03:09:26;;;;;;;;;17.75;15.00;;;;;12.88;60.54;102331.44;2449959;28;48020;-91
2022/03/17 03:10:37;;;;;;;;;21.00;20.25;;;;;12.88;60.85;102348.16;2450961;28;45307;-91
2022/03/17 03:11:47;;;;;;;;;25.00;19.00;;;;;12.87;60.68;102332.31;2451267;28;45594;-91
2022/03/17 03:12:58;;;;;;;;;22.00;19.00;;;;;12.87;60.57;102337.59;2450776;27;45195;-92
2022/03/17 03:14:09;;;;;;;;;20.25;17.50;;;;;12.85;61.01;102352.59;2450300;27;45422;-90
2022/03/17 03:15:19;;;;;;;;;19.00;18.50;;;;;12.82;60.66;102342.97;2441221;28;45457;-91
2022/03/17 03:16:30;;;;;;;;;17.75;16.00;;;;;12.77;60.05;102340.41;2466370;27;47243;-90
2022/03/17 03:17:41;;;;;;;;;21.75;17.75;;;;;12.77;60.73;102344.78;2458120;27;45306;-92
2022/03/17 03:18:51;;;;;;;;;18.50;16.50;;;;;12.75;60.35;102336.03;2450190;28;46829;-92
2022/03/17 03:20:02;;;;;;;;;20.75;17.50;;;;;12.73;60.56;102346.63;2462281;27;45581;-87
2022/03/17 03:21:12;;;;;;;;;25.25;21.25;;;;;12.70;60.43;102341.41;2464802;27;46468;-88
2022/03/17 03:22:22;;;;;;;;;20.75;18.25;;;;;12.71;60.70;102344.03;2443928;27;45226;-87
2022/03/17 03:23:34;;;;;;;;;18.50;16.75;;;;;12.72;60.52;102342.25;2442794;28;47139;-87
2022/03/17 03:24:45;;;;;;;;;21.00;17.50;;;;;12.72;60.63;102350.16;2443106;28;45280;-87
2022/03/17 03:25:56;;;;;;;;;22.50;19.00;;;;;12.71;60.22;102349.31;2449511;28;48157;-85
2022/03/17 03:27:06;;;;;;;;;19.25;19.00;;;;;12.70;60.06;102339.63;2450682;28;45334;-87
2022/03/17 03:28:16;;;;;;;;;23.75;18.25;;;;;12.69;60.21;102337.88;2451011;28;45341;-87
2022/03/17 03:29:27;;;;;;;;;19.50;17.75;;;;;12.68;60.27;102345.84;2450052;27;45465;-88
2022/03/17 03:30:38;;;;;;;;;21.25;18.00;;;;;12.66;60.01;102339.72;2450019;28;47022;-88
2022/03/17 03:31:53;;;;;;;;;16.75;16.25;;;;;12.65;59.95;102359.94;2463085;27;45330;-88
2022/03/17 03:33:08;;;;;;;;;17.00;16.00;;;;;12.63;60.04;102347.66;2455605;27;47225;-87
2022/03/17 03:34:19;;;;;;;;;18.50;16.75;;;;;12.59;60.23;102357.41;2449281;28;44691;-88
2022/03/17 03:38:28;;;;;;;;;20.75;18.00;;;;;12.52;60.26;102363.69;2441376;28;45867;-88
2022/03/17 03:39:38;;;;;;;;;19.50;18.50;;;;;12.51;60.32;102367.19;2463005;27;45381;-88
2022/03/17 03:40:49;;;;;;;;;18.50;15.75;;;;;12.50;60.04;102361.03;2464821;27;46359;-88
2022/03/17 03:42:00;;;;;;;;;20.25;18.75;;;;;12.51;60.06;102364.56;2450900;27;45468;-88
2022/03/17 03:43:10;;;;;;;;;17.25;15.50;;;;;12.50;60.24;102361.03;2446251;27;46132;-87
2022/03/17 03:44:21;;;;;;;;;17.00;14.50;;;;;12.51;60.00;102375.09;2441491;28;45311;-88
2022/03/17 03:45:32;;;;;;;;;17.00;17.00;;;;;12.48;59.83;102369.00;2449943;27;45331;-87
2022/03/17 03:46:43;;;;;;;;;16.75;16.75;;;;;12.49;59.83;102367.22;2450185;28;45224;-88
2022/03/17 03:47:53;;;;;;;;;19.50;17.25;;;;;12.48;59.76;102376.03;2447856;27;45262;-88
2022/03/17 03:49:04;;;;;;;;;17.25;17.00;;;;;12.46;59.89;102369.91;2441408;28;45184;-87
2022/03/17 03:50:14;;;;;;;;;15.75;14.50;;;;;12.47;60.03;102372.50;2449530;28;46453;-87
2022/03/17 03:51:24;;;;;;;;;16.50;16.00;;;;;12.45;59.81;102376.94;2451038;28;45199;-87
2022/03/17 03:52:35;;;;;;;;;15.75;13.00;;;;;12.46;60.00;102386.59;2449723;28;46586;-88
2022/03/17 03:55:14;;;;;;;;;19.50;18.25;;;;;12.46;59.98;102405.06;2450151;28;45285;-85
2022/03/17 03:56:26;;;;;;;;;18.75;17.75;;;;;12.46;60.20;102405.06;2451059;27;45428;-88
2022/03/17 03:57:37;;;;;;;;;20.75;17.25;;;;;12.41;59.86;102400.75;2450236;28;46399;-86
2022/03/17 03:58:47;;;;;;;;;14.75;14.25;;;;;12.40;59.88;102407.78;2450333;28;45357;-87
2022/03/17 03:59:57;;;;;;;;;22.25;22.00;;;;;12.38;60.15;102402.53;2452253;27;45351;-87
2022/03/17 04:01:08;;;;;;;;;22.00;17.00;;;;;12.39;59.78;102416.59;2449911;28;44634;-86
2022/03/17 04:02:18;;;;;;;;;23.00;21.50;;;;;12.35;60.41;102415.75;2449566;28;46427;-86
2022/03/17 04:03:29;;;;;;;;;17.25;17.00;;;;;12.36;61.07;102421.91;2449170;27;45243;-86
2022/03/17 04:04:40;;;;;;;;;20.75;16.75;;;;;12.28;60.22;102422.00;2450781;27;46215;-87
2022/03/17 04:05:51;;;;;;;;;18.50;16.25;;;;;12.27;60.38;102422.91;2449516;28;45496;-87
2022/03/17 04:07:04;;;;;;;;;18.00;17.50;;;;;12.27;60.38;102422.91;2450698;28;45180;-86
2022/03/17 04:08:15;;;;;;;;;18.00;17.00;;;;;12.27;60.15;102422.91;2449493;28;44792;-86
2022/03/17 04:09:28;;;;;;;;;17.00;17.00;;;;;12.27;60.15;102421.13;2448560;28;45226;-84
2022/03/17 04:10:39;;;;;;;;;20.25;19.25;;;;;12.26;60.42;102426.41;2452063;27;45431;-84
2022/03/17 04:11:50;;;;;;;;;19.00;17.25;;;;;12.25;60.35;102432.56;2450790;28;45421;-84
2022/03/17 04:13:01;;;;;;;;;23.50;18.25;;;;;12.25;60.35;102432.56;2449665;27;45275;-84
2022/03/17 04:14:13;;;;;;;;;19.25;16.00;;;;;12.22;60.37;102430.84;2449376;28;47161;-84
2022/03/17 04:15:23;;;;;;;;;24.00;20.75;;;;;12.22;59.41;102430.00;2450286;28;45282;-85
2022/03/17 04:16:34;;;;;;;;;20.75;18.00;;;;;12.21;59.78;102431.75;2449411;27;45663;-86
2022/03/17 04:17:44;;;;;;;;;20.50;16.00;;;;;12.22;59.94;102440.53;2450245;27;45202;-85
2022/03/17 04:18:55;;;;;;;;;14.50;14.50;;;;;12.21;59.74;102465.16;2450858;27;45188;-86
2022/03/17 04:20:06;;;;;;;;;19.25;15.25;;;;;12.19;59.54;102454.63;2449419;28;45212;-84
2022/03/17 04:21:17;;;;;;;;;18.75;16.50;;;;;12.16;59.59;102449.38;2450575;28;45428;-84
2022/03/17 04:22:27;;;;;;;;;19.25;16.25;;;;;12.17;59.63;102447.63;2450766;27;45283;-91
2022/03/17 04:23:38;;;;;;;;;17.25;14.75;;;;;12.14;59.65;102462.59;2443070;27;45320;-91
2022/03/17 04:24:48;;;;;;;;;18.25;16.25;;;;;12.13;59.67;102460.84;2442876;28;45442;-91
2022/03/17 04:25:58;;;;;;;;;19.00;18.00;;;;;12.12;59.52;102461.69;2442993;28;48201;-93
2022/03/17 04:27:09;;;;;;;;;18.50;16.50;;;;;12.12;59.43;102461.69;2450618;28;45326;-92
2022/03/17 04:28:19;;;;;;;;;17.75;15.50;;;;;12.10;59.58;102463.47;2450054;27;45941;-93
2022/03/17 04:29:29;;;;;;;;;16.00;14.00;;;;;12.09;59.56;102469.66;2446234;27;45537;-93
2022/03/17 04:30:40;;;;;;;;;16.00;14.25;;;;;12.08;59.72;102465.25;2457415;27;45341;-94
2022/03/17 04:31:50;;;;;;;;;17.50;14.50;;;;;12.09;59.62;102472.28;2451152;27;45235;-92
2022/03/17 04:33:00;;;;;;;;;17.00;16.75;;;;;12.10;59.56;102467.91;2450620;28;45690;-92
2022/03/17 04:34:12;;;;;;;;;21.50;17.75;;;;;12.10;59.78;102467.91;2450746;28;45301;-92
2022/03/17 04:35:22;;;;;;;;;18.25;15.50;;;;;12.10;59.79;102474.00;2448583;28;47223;-88
2022/03/17 04:36:33;;;;;;;;;15.50;14.50;;;;;12.10;59.63;102478.44;2443006;28;44712;-88
2022/03/17 04:37:44;;;;;;;;;19.75;19.75;;;;;12.09;59.54;102481.94;2450018;28;46529;-88
2022/03/17 04:38:54;;;;;;;;;19.00;15.50;;;;;12.08;59.73;102478.44;2450420;28;44708;-87
2022/03/17 04:40:05;;;;;;;;;14.00;14.00;;;;;12.10;59.72;102483.72;2449561;27;45245;-87
2022/03/17 04:41:17;;;;;;;;;16.00;16.00;;;;;12.10;59.64;102484.56;2449394;28;45356;-87
2022/03/17 04:42:27;;;;;;;;;25.00;17.25;;;;;12.09;59.79;102488.09;2450358;27;45369;-88
2022/03/17 04:43:38;;;;;;;;;17.50;17.50;;;;;12.07;59.59;102487.25;2448614;28;45500;-87
2022/03/17 04:44:49;;;;;;;;;21.00;19.25;;;;;12.07;59.77;102484.63;2448151;27;45347;-86
2022/03/17 04:46:00;;;;;;;;;19.00;16.50;;;;;12.10;59.41;102495.09;2450541;28;45292;-88
2022/03/17 04:47:10;;;;;;;;;17.50;14.50;;;;;12.09;59.44;102501.28;2450380;27;45344;-86
2022/03/17 04:48:20;;;;;;;;;14.50;13.00;;;;;12.04;59.00;102489.91;2449619;28;45226;-86
2022/03/17 04:49:31;;;;;;;;;17.25;15.50;;;;;12.03;59.31;102494.31;2449419;27;45267;-86
2022/03/17 04:50:42;;;;;;;;;17.50;15.25;;;;;12.04;59.11;102503.09;2449502;28;45133;-86
2022/03/17 04:51:53;;;;;;;;;17.25;14.50;;;;;12.05;59.29;102502.19;2469316;27;46199;-87
2022/03/17 04:54:32;;;;;;;;;13.25;13.00;;;;;12.04;58.50;102503.09;2443877;28;45755;-84
2022/03/17 04:55:42;;;;;;;;;14.75;12.25;;;;;12.00;58.61;102514.56;2441707;28;45219;-85
2022/03/17 04:56:53;;;;;;;;;12.00;10.75;;;;;11.97;58.50;102511.94;2444357;28;46137;-83
2022/03/17 04:58:03;;;;;;;;;15.50;11.75;;;;;11.93;58.58;102517.25;2449844;28;44544;-83
2022/03/17 04:59:14;;;;;;;;;14.00;10.00;;;;;11.90;58.52;102512.00;2448472;28;45325;-84
2022/03/17 05:00:24;;;;;;;;;11.75;11.00;;;;;11.88;58.20;102526.06;2451175;28;45294;-84
2022/03/17 05:01:35;;;;;;;;;14.00;9.50;;;;;11.85;58.40;102519.09;2451568;28;45419;-83
2022/03/17 05:02:45;;;;;;;;;8.50;8.50;;;;;11.80;58.33;102532.28;2450168;27;45185;-84
2022/03/17 05:03:56;;;;;;;;;11.75;9.25;;;;;11.77;58.38;102544.63;2460716;27;47122;-84
2022/03/17 05:05:07;;;;;;;;;12.50;11.00;;;;;11.72;58.54;102547.31;2466010;27;45259;-84
2022/03/17 05:06:17;;;;;;;;;13.75;11.50;;;;;11.70;58.96;102536.78;2443875;27;45395;-86
2022/03/17 05:07:28;;;;;;;;;14.00;12.75;;;;;11.69;58.63;102532.41;2446486;28;45235;-86
2022/03/17 05:08:39;;;;;;;;;13.00;11.50;;;;;11.69;58.70;102536.78;2451480;27;46375;-86
2022/03/17 05:09:49;;;;;;;;;10.75;10.25;;;;;11.69;58.57;102552.59;2447980;27;45863;-85
2022/03/17 05:11:00;;;;;;;;;9.25;9.25;;;;;11.68;58.52;102530.66;2451372;28;45409;-85
2022/03/17 05:12:11;;;;;;;;;12.00;12.00;;;;;11.70;58.87;102541.19;2450915;28;45241;-85
2022/03/17 05:13:22;;;;;;;;;8.75;8.50;;;;;11.70;58.61;102544.66;2449938;27;45465;-85
2022/03/17 05:14:33;;;;;;;;;10.00;10.00;;;;;11.69;58.48;102536.78;2451379;27;45290;-85
2022/03/17 05:15:43;;;;;;;;;9.25;9.25;;;;;11.67;58.58;102543.84;2451773;28;45285;-85
2022/03/17 05:16:54;;;;;;;;;16.25;13.25;;;;;11.66;58.73;102534.19;2449042;27;45222;-85
2022/03/17 05:18:06;;;;;;;;;13.75;12.00;;;;;11.69;58.53;102548.22;2451412;28;45954;-85
2022/03/17 05:19:17;;;;;;;;;12.50;10.50;;;;;11.70;58.86;102549.94;2442636;28;45238;-84
2022/03/17 05:20:28;;;;;;;;;10.25;10.00;;;;;11.72;58.62;102542.03;2445808;28;45536;-85
2022/03/17 05:21:38;;;;;;;;;12.50;11.00;;;;;11.75;58.65;102547.28;2449016;28;45351;-85
2022/03/17 05:22:49;;;;;;;;;13.50;10.50;;;;;11.75;58.84;102543.78;2450841;28;46021;-84
2022/03/17 05:23:59;;;;;;;;;10.50;10.50;;;;;11.77;58.33;102547.28;2443830;28;45346;-86
2022/03/17 05:25:10;;;;;;;;;9.75;9.75;;;;;11.78;58.48;102544.59;2449766;28;45416;-88
2022/03/17 05:26:21;;;;;;;;;12.50;8.75;;;;;11.80;58.93;102550.72;2451402;28;45290;-87
2022/03/17 05:27:31;;;;;;;;;7.00;6.00;;;;;11.84;58.38;102558.63;2449899;28;45618;-86
2022/03/17 05:28:41;;;;;;;;;11.50;10.50;;;;;11.84;58.19;102562.13;2451178;27;45135;-87
2022/03/17 05:29:52;;;;;;;;;9.00;9.00;;;;;11.86;58.21;102564.75;2451237;28;45414;-87
2022/03/17 05:31:02;;;;;;;;;7.25;6.50;;;;;11.84;57.93;102562.13;2451767;27;45211;-86
2022/03/17 05:32:13;;;;;;;;;12.50;10.25;;;;;11.82;58.33;102569.19;2451193;28;48199;-86
2022/03/17 05:33:23;;;;;;;;;7.75;6.00;;;;;11.81;58.09;102572.69;2444776;28;45201;-86
2022/03/17 05:34:33;;;;;;;;;8.00;7.75;;;;;11.81;58.04;102585.88;2447047;28;45530;-85
2022/03/17 05:35:44;;;;;;;;;9.75;8.00;;;;;11.80;58.02;102581.50;2451270;27;45160;-87
2022/03/17 05:36:55;;;;;;;;;12.25;8.00;;;;;11.79;58.00;102577.97;2450160;27;46449;-86